Time;durP1;ratioP1;P1;durP2;ratioP2;P2;SDS_P1;SDS_P2;PMS_P1;PMS_P2;Temp;Humidity;BMP_temperature;BMP_pressure;BME280_temperature;BME280_humidity;BME280_pressure;Samples;Min_cycle;Max_cycle;Signal;HPM_P1;HPM_P2
2021/03/02 00:01:59;;;;;;;53.72;19.80;;;;;;;-143.98;100.00;68091.63;6275439;22;20023;-82
2021/03/02 00:04:27;;;;;;;58.03;19.83;;;;;;;-143.98;100.00;68091.63;6275411;22;20364;-82
2021/03/02 00:06:57;;;;;;;126.88;20.92;;;;;;;-143.98;100.00;68091.63;6277301;22;20042;-82
2021/03/02 00:09:23;;;;;;;97.68;20.83;;;;;;;-143.98;100.00;68091.63;6276530;22;20081;-82
2021/03/02 00:11:51;;;;;;;225.90;26.23;;;;;;;-143.98;100.00;68091.63;6250601;22;20028;-82
2021/03/02 00:14:18;;;;;;;131.98;21.48;;;;;;;-143.98;100.00;68091.63;6277681;22;20095;-82
2021/03/02 00:16:56;;;;;;;164.40;21.48;;;;;;;-143.98;100.00;68091.63;6277361;22;20039;-82
2021/03/02 00:19:30;;;;;;;74.72;18.20;;;;;;;-143.98;100.00;68091.63;6253102;22;20309;-82
2021/03/02 00:22:04;;;;;;;85.72;22.88;;;;;;;-143.98;100.00;68091.63;6252170;22;20031;-82
2021/03/02 00:24:36;;;;;;;211.20;23.48;;;;;;;-143.98;100.00;68091.63;6275987;22;20132;-82
2021/03/02 00:27:05;;;;;;;192.38;22.73;;;;;;;-143.98;100.00;68091.63;6276358;22;20034;-82
2021/03/02 00:29:32;;;;;;;120.53;24.85;;;;;;;-143.98;100.00;68091.63;6250534;22;20390;-82
2021/03/02 00:32:04;;;;;;;221.30;26.48;;;;;;;-143.98;100.00;68091.63;6275335;22;20030;-82
2021/03/02 00:34:31;;;;;;;57.55;20.88;;;;;;;-143.98;100.00;68091.63;6252453;22;20034;-82
2021/03/02 00:36:58;;;;;;;279.38;27.55;;;;;;;-143.98;100.00;68091.63;6263397;22;20038;-82
2021/03/02 00:39:24;;;;;;;88.63;22.85;;;;;;;-143.98;100.00;68091.63;6293844;22;20205;-83
2021/03/02 00:41:50;;;;;;;57.10;20.42;;;;;;;-143.98;100.00;68091.63;6267008;22;20024;-83
2021/03/02 00:44:17;;;;;;;101.40;23.90;;;;;;;-143.98;100.00;68091.63;6268706;22;20011;-82
2021/03/02 00:46:45;;;;;;;58.88;19.67;;;;;;;-143.98;100.00;68091.63;6270328;22;20034;-83
2021/03/02 00:49:14;;;;;;;69.60;20.67;;;;;;;-143.98;100.00;68091.63;6269828;22;20019;-83
2021/03/02 00:51:40;;;;;;;140.70;23.60;;;;;;;-143.98;100.00;68091.63;6295083;22;20018;-83
2021/03/02 00:54:07;;;;;;;195.82;24.65;;;;;;;-143.98;100.00;68091.63;6297250;22;20080;-83
2021/03/02 00:56:33;;;;;;;165.38;23.00;;;;;;;-143.98;100.00;68091.63;6272623;22;20064;-83
2021/03/02 00:59:13;;;;;;;127.05;22.48;;;;;;;-143.98;100.00;68091.63;6251289;22;20028;-83
2021/03/02 01:01:39;;;;;;;65.35;20.30;;;;;;;-143.98;100.00;68091.63;6276753;22;20051;-83
2021/03/02 01:04:06;;;;;;;52.33;19.42;;;;;;;-143.98;100.00;68091.63;6277182;22;20059;-82
2021/03/02 01:06:32;;;;;;;122.93;21.45;;;;;;;-143.98;100.00;68091.63;6251636;22;20027;-83
2021/03/02 01:08:58;;;;;;;73.72;19.98;;;;;;;-143.98;100.00;68091.63;6277802;22;20028;-83
2021/03/02 01:11:28;;;;;;;127.38;21.90;;;;;;;-143.98;100.00;68091.63;6251704;22;20024;-82
2021/03/02 01:13:54;;;;;;;118.78;20.88;;;;;;;-143.98;100.00;68091.63;6250216;22;20403;-83
2021/03/02 01:16:20;;;;;;;114.32;20.98;;;;;;;-143.98;100.00;68091.63;6250789;22;20420;-83
2021/03/02 01:18:46;;;;;;;128.77;24.08;;;;;;;-143.98;100.00;68091.63;6277879;22;20324;-83
2021/03/02 01:21:14;;;;;;;93.47;19.65;;;;;;;-143.98;100.00;68091.63;6276441;22;20023;-83
2021/03/02 01:23:42;;;;;;;92.57;20.48;;;;;;;-143.98;100.00;68091.63;6276332;22;20023;-83
2021/03/02 01:26:10;;;;;;;92.50;19.75;;;;;;;-143.98;100.00;68091.63;6252451;22;20051;-82
2021/03/02 01:28:37;;;;;;;90.53;20.92;;;;;;;-143.98;100.00;68091.63;6276888;22;20081;-82
2021/03/02 01:31:04;;;;;;;170.02;27.50;;;;;;;-143.98;100.00;68091.63;6251330;22;20030;-83
2021/03/02 01:33:30;;;;;;;79.85;20.70;;;;;;;-143.98;100.00;68091.63;6276390;22;20415;-83
2021/03/02 01:35:56;;;;;;;99.90;21.10;;;;;;;-143.98;100.00;68091.63;6287607;22;20027;-83
2021/03/02 01:38:22;;;;;;;114.50;22.80;;;;;;;-143.98;100.00;68091.63;6298747;22;20024;-83
2021/03/02 01:40:50;;;;;;;108.70;23.17;;;;;;;-143.98;100.00;68091.63;6268380;22;20027;-83
2021/03/02 01:43:36;;;;;;;154.43;24.73;;;;;;;-143.98;100.00;68091.63;6280603;22;20093;-83
2021/03/02 01:46:05;;;;;;;192.23;24.92;;;;;;;-143.98;100.00;68091.63;6278261;22;20366;-83
2021/03/02 01:48:36;;;;;;;44.10;18.83;;;;;;;-143.98;100.00;68091.63;6290851;22;20070;-83
2021/03/02 01:51:08;;;;;;;63.85;19.67;;;;;;;-143.98;100.00;68091.63;6275723;22;20038;-83
2021/03/02 01:53:34;;;;;;;123.53;22.70;;;;;;;-143.98;100.00;68091.63;6300724;22;20022;-83
2021/03/02 01:56:01;;;;;;;48.20;19.83;;;;;;;-143.98;100.00;68091.63;6301685;22;20011;-82
2021/03/02 01:58:34;;;;;;;48.17;20.10;;;;;;;-143.98;100.00;68091.63;6285200;22;20032;-82
2021/03/02 02:01:06;;;;;;;99.20;20.63;;;;;;;-143.98;100.00;68091.63;6255009;22;20187;-82
2021/03/02 02:03:49;;;;;;;39.13;18.95;;;;;;;-143.98;100.00;68091.63;6280915;22;20400;-82
2021/03/02 02:06:59;;;;;;;47.95;18.80;;;;;;;-143.98;100.00;68091.63;6279719;22;20030;-82
2021/03/02 02:10:07;;;;;;;55.85;19.02;;;;;;;-143.98;100.00;68091.63;6277621;22;20320;-82
2021/03/02 02:12:37;;;;;;;69.65;19.15;;;;;;;-143.98;100.00;68091.63;6216702;23;20075;-82
2021/03/02 02:15:12;;;;;;;72.30;19.23;;;;;;;-143.98;100.00;68091.63;6245067;22;20034;-83
2021/03/02 02:17:42;;;;;;;52.05;18.55;;;;;;;-143.98;100.00;68091.63;6279448;22;20031;-82
2021/03/02 02:20:09;;;;;;;157.55;25.35;;;;;;;-143.98;100.00;68091.63;6280331;22;20042;-83
2021/03/02 02:22:49;;;;;;;58.45;19.83;;;;;;;-143.98;100.00;68091.63;6279949;22;20031;-82
2021/03/02 02:25:26;;;;;;;65.35;24.00;;;;;;;-143.98;100.00;68091.63;6278933;22;20053;-83
2021/03/02 02:28:01;;;;;;;45.03;18.90;;;;;;;-143.98;100.00;68091.63;6256298;22;20134;-83
2021/03/02 02:30:29;;;;;;;143.85;24.80;;;;;;;-143.98;100.00;68091.63;6278685;22;20374;-84
2021/03/02 02:32:56;;;;;;;49.08;18.30;;;;;;;-143.98;100.00;68091.63;6252897;22;20057;-83
2021/03/02 02:35:27;;;;;;;151.20;24.20;;;;;;;-143.98;100.00;68091.63;6279088;22;20027;-83
2021/03/02 02:37:54;;;;;;;42.33;18.67;;;;;;;-143.98;100.00;68091.63;6250865;22;20024;-83
2021/03/02 02:40:27;;;;;;;133.73;22.42;;;;;;;-143.98;100.00;68091.63;6270548;22;20169;-84
2021/03/02 02:42:57;;;;;;;48.22;19.10;;;;;;;-143.98;100.00;68091.63;6253257;22;20110;-83
2021/03/02 02:45:24;;;;;;;41.17;18.38;;;;;;;-143.98;100.00;68091.63;6276268;22;20063;-83
2021/03/02 02:47:50;;;;;;;53.90;18.08;;;;;;;-143.98;100.00;68091.63;6276882;22;20035;-83
2021/03/02 02:50:18;;;;;;;48.50;17.10;;;;;;;-143.98;100.00;68091.63;6276695;22;20294;-84
2021/03/02 02:52:46;;;;;;;70.35;18.20;;;;;;;-143.98;100.00;68091.63;6252480;22;20023;-83
2021/03/02 02:55:14;;;;;;;56.72;16.85;;;;;;;-143.98;100.00;68091.63;6276973;22;20476;-83
2021/03/02 02:57:48;;;;;;;41.63;17.65;;;;;;;-143.98;100.00;68091.63;6252099;22;20035;-83
2021/03/02 03:00:18;;;;;;;59.03;18.75;;;;;;;-143.98;100.00;68091.63;6250243;22;20023;-83
2021/03/02 03:02:49;;;;;;;45.05;18.30;;;;;;;-143.98;100.00;68091.63;6224550;22;20023;-83
2021/03/02 03:05:18;;;;;;;110.10;22.27;;;;;;;-143.98;100.00;68091.63;6223026;22;20482;-83
2021/03/02 03:07:48;;;;;;;67.10;19.00;;;;;;;-143.98;100.00;68091.63;6222782;22;20027;-83
2021/03/02 03:10:26;;;;;;;97.07;18.90;;;;;;;-143.98;100.00;68091.63;6251793;22;20035;-83
2021/03/02 03:12:57;;;;;;;41.17;16.90;;;;;;;-143.98;100.00;68091.63;6251232;22;20054;-83
2021/03/02 03:15:24;;;;;;;36.97;16.95;;;;;;;-143.98;100.00;68091.63;6249536;22;20058;-84
2021/03/02 03:17:52;;;;;;;173.30;24.30;;;;;;;-143.98;100.00;68091.63;6251789;22;20416;-83
2021/03/02 03:20:22;;;;;;;122.80;21.55;;;;;;;-143.98;100.00;68091.63;6228202;22;20340;-84
2021/03/02 03:22:50;;;;;;;62.25;17.13;;;;;;;-143.98;100.00;68091.63;6252578;22;20079;-81
2021/03/02 03:25:17;;;;;;;48.47;19.27;;;;;;;-143.98;100.00;68091.63;6257560;22;20035;-82
2021/03/02 03:27:50;;;;;;;58.60;18.08;;;;;;;-143.98;100.00;68091.63;6256034;22;20316;-82
2021/03/02 03:30:17;;;;;;;82.03;17.45;;;;;;;-143.98;100.00;68091.63;6260531;22;20031;-83
2021/03/02 03:32:52;;;;;;;32.33;17.48;;;;;;;-143.98;100.00;68091.63;6266491;22;20023;-82
2021/03/02 03:35:22;;;;;;;72.50;18.33;;;;;;;-143.98;100.00;68091.63;6267111;22;20090;-82
2021/03/02 03:37:48;;;;;;;149.65;20.60;;;;;;;-143.98;100.00;68091.63;6242367;22;20047;-83
2021/03/02 03:40:15;;;;;;;60.67;17.80;;;;;;;-143.98;100.00;68091.63;6240147;22;20066;-82
2021/03/02 03:42:41;;;;;;;91.35;19.05;;;;;;;-143.98;100.00;68091.63;6238118;22;20048;-83
2021/03/02 03:45:12;;;;;;;81.60;19.50;;;;;;;-143.98;100.00;68091.63;6261881;22;20389;-83
2021/03/02 03:47:42;;;;;;;203.25;23.98;;;;;;;-143.98;100.00;68091.63;6228270;22;20091;-83
2021/03/02 03:50:13;;;;;;;65.00;18.35;;;;;;;-143.98;100.00;68091.63;6228664;22;20425;-82
2021/03/02 03:52:47;;;;;;;51.70;17.63;;;;;;;-143.98;100.00;68091.63;6253411;22;20031;-82
2021/03/02 03:55:18;;;;;;;;;;;;;;;-143.98;100.00;68091.63;6231799;22;20070;-82
2021/03/02 03:57:45;;;;;;;66.25;17.38;;;;;;;-143.98;100.00;68091.63;6246057;22;19910;-82
2021/03/02 04:00:13;;;;;;;51.67;17.80;;;;;;;-143.98;100.00;68091.63;6239401;22;20097;-82
2021/03/02 04:02:45;;;;;;;48.95;17.30;;;;;;;-143.98;100.00;68091.63;6222392;22;20475;-82
2021/03/02 04:05:12;;;;;;;79.38;18.88;;;;;;;-143.98;100.00;68091.63;6251459;22;20050;-82
2021/03/02 04:07:41;;;;;;;96.20;18.75;;;;;;;-143.98;100.00;68091.63;6226931;22;20033;-82
2021/03/02 04:10:09;;;;;;;95.82;21.30;;;;;;;-143.98;100.00;68091.63;6225042;22;20054;-82
2021/03/02 04:12:43;;;;;;;153.98;23.15;;;;;;;-143.98;100.00;68091.63;6252154;22;20028;-82
2021/03/02 04:15:26;;;;;;;57.97;17.40;;;;;;;-143.98;100.00;68091.63;6242064;22;20261;-82
2021/03/02 04:17:54;;;;;;;79.53;18.88;;;;;;;-143.98;100.00;68091.63;6234879;22;20034;-82
2021/03/02 04:20:27;;;;;;;267.45;27.77;;;;;;;-143.98;100.00;68091.63;6231644;22;20031;-83
2021/03/02 04:22:57;;;;;;;59.53;18.83;;;;;;;-143.98;100.00;68091.63;6251370;22;20024;-82
2021/03/02 04:25:23;;;;;;;52.67;17.55;;;;;;;-143.98;100.00;68091.63;6250222;22;20432;-82
2021/03/02 04:27:49;;;;;;;37.22;17.10;;;;;;;-143.98;100.00;68091.63;6249773;22;20028;-82
2021/03/02 04:30:21;;;;;;;45.20;17.63;;;;;;;-143.98;100.00;68091.63;6225210;22;20023;-82
2021/03/02 04:32:50;;;;;;;137.02;21.58;;;;;;;-143.98;100.00;68091.63;6248719;22;20089;-82
2021/03/02 04:35:17;;;;;;;79.80;19.35;;;;;;;-143.98;100.00;68091.63;6250288;22;20053;-82
2021/03/02 04:37:43;;;;;;;39.42;18.00;;;;;;;-143.98;100.00;68091.63;6222710;22;20023;-82
2021/03/02 04:40:10;;;;;;;117.97;20.88;;;;;;;-143.98;100.00;68091.63;6227539;22;20023;-82
2021/03/02 04:42:42;;;;;;;192.45;26.38;;;;;;;-143.98;100.00;68091.63;6250544;22;20397;-82
2021/03/02 04:45:10;;;;;;;134.23;19.90;;;;;;;-143.98;100.00;68091.63;6225180;22;20316;-82
2021/03/02 04:47:44;;;;;;;65.85;17.80;;;;;;;-143.98;100.00;68091.63;6227069;22;20023;-82
2021/03/02 04:50:12;;;;;;;54.25;17.15;;;;;;;-143.98;100.00;68091.63;6249932;22;20027;-82
2021/03/02 04:52:41;;;;;;;202.27;21.83;;;;;;;-143.98;100.00;68091.63;6273516;22;20035;-82
2021/03/02 04:55:08;;;;;;;130.10;18.65;;;;;;;-143.98;100.00;68091.63;6223331;22;20032;-83
2021/03/02 04:57:34;;;;;;;43.72;17.42;;;;;;;-143.98;100.00;68091.63;6219165;23;20095;-83
2021/03/02 05:00:10;;;;;;;75.72;23.90;;;;;;;-143.98;100.00;68091.63;6196703;23;20079;-82
2021/03/02 05:02:40;;;;;;;146.27;23.20;;;;;;;-143.98;100.00;68091.63;6198782;23;20024;-83
2021/03/02 05:05:07;;;;;;;75.63;19.35;;;;;;;-143.98;100.00;68091.63;6239840;23;20024;-82
2021/03/02 05:07:34;;;;;;;37.65;18.33;;;;;;;-143.98;100.00;68091.63;6239372;23;20082;-82
2021/03/02 05:10:02;;;;;;;130.18;23.15;;;;;;;-143.98;100.00;68091.63;6197651;23;20055;-83
2021/03/02 05:12:28;;;;;;;76.60;18.70;;;;;;;-143.98;100.00;68091.63;6219551;23;20020;-83
2021/03/02 05:14:54;;;;;;;47.95;17.40;;;;;;;-143.98;100.00;68091.63;6198034;23;20013;-83
2021/03/02 05:17:23;;;;;;;45.05;17.23;;;;;;;-143.98;100.00;68091.63;6238606;23;20024;-83
2021/03/02 05:19:52;;;;;;;57.53;18.73;;;;;;;-143.98;100.00;68091.63;6205674;23;20229;-83
2021/03/02 05:22:22;;;;;;;94.80;23.83;;;;;;;-143.98;100.00;68091.63;6194900;23;20024;-83
2021/03/02 05:24:51;;;;;;;236.73;29.67;;;;;;;-143.98;100.00;68091.63;6222392;23;20033;-82
2021/03/02 05:27:20;;;;;;;60.58;19.95;;;;;;;-143.98;100.00;68091.63;6198735;23;20264;-83
2021/03/02 05:29:52;;;;;;;140.00;23.30;;;;;;;-143.98;100.00;68091.63;6196555;23;20076;-82
2021/03/02 05:32:28;;;;;;;60.42;20.45;;;;;;;-143.98;100.00;68091.63;6219739;23;20059;-81
2021/03/02 05:35:18;;;;;;;104.07;20.33;;;;;;;-143.98;100.00;68091.63;6219619;23;20106;-82
2021/03/02 05:38:26;;;;;;;79.18;20.25;;;;;;;-143.98;100.00;68091.63;6197574;23;20032;-82
2021/03/02 05:41:27;;;;;;;50.53;17.65;;;;;;;-143.98;100.00;68091.63;6238816;22;20097;-84
2021/03/02 05:44:30;;;;;;;43.70;19.27;;;;;;;-143.98;100.00;68091.63;6224320;23;20252;-84
2021/03/02 05:47:24;;;;;;;628.30;50.05;;;;;;;-143.98;100.00;68091.63;6205195;23;20213;-82
2021/03/02 05:50:24;;;;;;;54.17;18.50;;;;;;;-143.98;100.00;68091.63;6199063;23;20028;-83
2021/03/02 05:53:32;;;;;;;50.60;18.52;;;;;;;-143.98;100.00;68091.63;6197279;23;20220;-83
2021/03/02 05:56:25;;;;;;;232.05;27.30;;;;;;;-143.98;100.00;68091.63;6230101;22;20126;-83
2021/03/02 05:59:09;;;;;;;118.65;21.17;;;;;;;-143.98;100.00;68091.63;6268294;22;20067;-83
2021/03/02 06:01:45;;;;;;;51.22;18.55;;;;;;;-143.98;100.00;68091.63;6276253;22;20042;-83
2021/03/02 06:04:24;;;;;;;112.10;21.88;;;;;;;-143.98;100.00;68091.63;6248307;22;20027;-83
2021/03/02 06:07:39;;;;;;;47.35;19.17;;;;;;;-143.98;100.00;68091.63;6273309;22;20110;-83
2021/03/02 06:10:51;;;;;;;257.23;30.00;;;;;;;-143.98;100.00;68091.63;6254914;22;20147;-83
2021/03/02 06:14:03;;;;;;;76.82;23.75;;;;;;;-143.98;100.00;68091.63;6221710;22;20081;-83
2021/03/02 06:16:49;;;;;;;61.65;21.92;;;;;;;-143.98;100.00;68091.63;6271945;22;20024;-83
2021/03/02 06:19:48;;;;;;;47.55;21.45;;;;;;;-143.98;100.00;68091.63;6273512;22;20047;-83
2021/03/02 06:23:08;;;;;;;49.80;21.80;;;;;;;-143.98;100.00;68091.63;6268497;22;20103;-82
2021/03/02 06:26:30;;;;;;;47.20;22.25;;;;;;;-143.98;100.00;68091.63;6265701;22;20032;-83
2021/03/02 06:29:21;;;;;;;44.42;20.98;;;;;;;-143.98;100.00;68091.63;6254640;22;20428;-83
2021/03/02 06:36:02;;;;;;;45.25;20.52;;;;;;;-143.98;100.00;68091.63;6263906;22;20028;-84
2021/03/02 06:39:56;;;;;;;46.10;21.20;;;;;;;-143.98;100.00;68091.63;6256171;22;20038;-82
2021/03/02 06:43:26;;;;;;;;;;;;;;;;;;;;;
2021/03/02 06:58:47;;;;;;;;;;;;;;;;;;;;;
2021/03/02 07:05:45;;;;;;;;;;;;;;;;;;;;;
2021/03/02 07:12:23;;;;;;;;;;;;;;;;;;;;;
2021/03/02 07:15:23;;;;;;;25.83;13.38;;;;;;;-143.98;100.00;68091.63;5790726;24;20136;-83
2021/03/02 07:19:32;;;;;;;24.27;13.70;;;;;;;-143.98;100.00;68091.63;5917185;24;20036;-82
2021/03/02 07:22:37;;;;;;;26.08;13.85;;;;;;;-143.98;100.00;68091.63;5926148;24;20227;-82
2021/03/02 07:25:43;;;;;;;;;;;;;;;;;;;;;
2021/03/02 07:40:48;;;;;;;;;;;;;;;;;;;;;
2021/03/02 07:44:38;;;;;;;27.10;13.18;;;;;;;-143.98;100.00;68091.63;5967952;23;20031;-84
2021/03/02 07:48:23;;;;;;;;;;;;;;;;;;;;;
2021/03/02 07:52:03;;;;;;;;;;;;;;;;;;;;;
2021/03/02 08:32:26;;;;;;;;;;;;;;;;;;;;;
2021/03/02 08:47:06;;;;;;;;;;;;;;;;;;;;;
2021/03/02 08:50:57;;;;;;;;;;;;;;;;;;;;;
2021/03/02 09:20:28;;;;;;;;;;;;;;;;;;;;;
2021/03/02 09:32:27;;;;;;;26.30;14.82;;;;;;;-143.98;100.00;68091.63;5850473;24;20144;-85
2021/03/02 09:38:35;;;;;;;25.75;15.32;;;;;;;-143.98;100.00;68091.63;6277421;22;20031;-85
2021/03/02 09:42:00;;;;;;;24.52;15.10;;;;;;;-143.98;100.00;68091.63;6237692;22;20026;-85
2021/03/02 09:44:33;;;;;;;26.15;15.88;;;;;;;-143.98;100.00;68091.63;6229116;22;20146;-84
2021/03/02 09:48:18;;;;;;;;;;;;;;;;;;;;;
2021/03/02 09:56:08;;;;;;;;;;;;;;;;;;;;;
2021/03/02 10:11:13;;;;;;;;;;;;;;;;;;;;;
2021/03/02 10:18:45;;;;;;;21.08;13.55;;;;;;;-143.98;100.00;68091.63;6017456;23;20027;-84
2021/03/02 10:40:09;;;;;;;16.65;11.57;;;;;;;17.36;31.15;103383.34;3883158;27;33589083;-84
2021/03/02 10:43:33;;;;;;;17.02;10.77;;;;;;;20.41;26.69;103377.41;4971551;28;20144;-84
2021/03/02 10:47:09;;;;;;;;;;;;;;;;;;;;;
2021/03/02 11:06:34;;;;;;;16.00;11.57;;;;;;;20.00;27.90;103369.81;4878524;29;20154;-84
2021/03/02 11:24:26;;;;;;;;;;;;;;;;;;;;;
2021/03/02 11:27:31;;;;;;;;;;;;;;;;;;;;;
2021/03/02 11:47:28;;;;;;;;;;;;;;;;;;;;;
2021/03/02 12:27:07;;;;;;;20.48;9.25;;;;;;;20.01;29.31;103269.56;6100073;23;20028;-84
2021/03/02 12:31:15;;;;;;;;;;;;;;;;;;;;;
2021/03/02 12:39:09;;;;;;;16.77;10.15;;;;;;;20.25;28.77;103259.25;6031579;23;20025;-83
2021/03/02 12:49:17;;;;;;;15.30;10.57;;;;;;;18.91;31.24;103254.22;6144970;23;20021;-84
2021/03/02 12:53:18;;;;;;;16.75;9.57;;;;;;;16.77;34.54;103257.66;6055406;23;20050;-84
2021/03/02 12:56:32;;;;;;;15.68;10.38;;;;;;;17.08;35.12;103248.47;6043544;23;20026;-84
2021/03/02 12:59:51;;;;;;;18.17;9.35;;;;;;;15.66;36.98;103242.63;5907422;24;20032;-84
2021/03/02 13:02:54;;;;;;;16.60;10.27;;;;;;;16.73;36.14;103244.69;5925069;24;20141;-85
2021/03/02 13:10:15;;;;;;;13.40;8.55;;;;;;;16.19;36.38;103233.31;5940399;23;20017;-84
2021/03/02 13:14:37;;;;;;;12.90;9.10;;;;;;;16.95;36.05;103215.75;6111909;23;20420;-85
2021/03/02 13:18:17;;;;;;;;;;;;;;;;;;;;;
2021/03/02 13:22:15;;;;;;;;;;;;;;;;;;;;;
2021/03/02 13:25:34;;;;;;;13.02;9.05;;;;;;;16.90;36.95;103199.34;6005965;23;20165;-83
2021/03/02 13:47:49;;;;;;;14.32;9.82;;;;;;;15.96;39.85;103184.28;5897770;24;20040;-84
2021/03/02 13:51:11;;;;;;;;;;;;;;;;;;;;;
2021/03/02 13:57:49;;;;;;;16.50;10.63;;;;;;;15.30;40.75;103177.25;5927357;23;20024;-83
2021/03/02 14:01:12;;;;;;;19.38;10.45;;;;;;;15.93;40.08;103176.53;6022136;23;20200;-83
2021/03/02 14:04:11;;;;;;;15.70;10.25;;;;;;;15.87;39.93;103179.22;5982035;23;20036;-85
2021/03/02 14:07:06;;;;;;;15.85;10.02;;;;;;;16.14;39.95;103173.63;5958561;23;20028;-85
2021/03/02 14:10:17;;;;;;;;;;;;;;;;;;;;;
2021/03/02 14:13:41;;;;;;;14.25;9.13;;;;;;;15.54;39.94;103163.13;6037782;23;20156;-83
2021/03/02 14:19:49;;;;;;;15.63;9.73;;;;;;;16.01;38.86;103164.31;6063602;23;20105;-84
2021/03/02 14:26:47;;;;;;;13.27;8.73;;;;;;;15.77;40.81;103164.63;6197696;23;20100;-84
2021/03/02 14:29:36;;;;;;;19.70;9.63;;;;;;;15.89;40.76;103159.25;6064287;23;20486;-84
2021/03/02 14:32:20;;;;;;;16.85;10.13;;;;;;;15.84;40.63;103161.06;6129595;23;20213;-84
2021/03/02 14:34:57;;;;;;;17.83;8.45;;;;;;;15.74;39.91;103157.72;6179960;23;20025;-84
2021/03/02 14:37:28;;;;;;;16.98;9.05;;;;;;;15.77;39.78;103152.50;6155388;23;20394;-83
2021/03/02 14:40:04;;;;;;;12.50;8.82;;;;;;;15.85;40.65;103148.06;6181246;23;20039;-84
2021/03/02 14:42:37;;;;;;;16.33;9.13;;;;;;;16.10;39.95;103137.31;6158355;23;20288;-83
2021/03/02 14:45:26;;;;;;;;;;;;;;;;;;;;;
2021/03/02 14:51:39;;;;;;;16.80;7.95;;;;;;;15.88;40.05;103128.97;6175421;23;20283;-83
2021/03/02 14:54:39;;;;;;;13.50;8.32;;;;;;;15.80;39.30;103136.88;6161537;23;20021;-83
2021/03/02 14:57:31;;;;;;;20.63;8.60;;;;;;;15.73;39.93;103135.25;6181486;23;20115;-83
2021/03/02 15:00:27;;;;;;;13.27;8.45;;;;;;;15.75;39.33;103128.28;6116569;23;20107;-85
2021/03/02 15:02:59;;;;;;;14.93;8.00;;;;;;;15.86;39.36;103131.63;6158893;23;20080;-83
2021/03/02 15:05:26;;;;;;;17.85;7.68;;;;;;;15.92;38.77;103126.31;6157010;23;20431;-83
2021/03/02 15:08:03;;;;;;;12.20;7.65;;;;;;;15.87;39.33;103122.09;6159023;23;20063;-83
2021/03/02 15:10:33;;;;;;;11.82;8.00;;;;;;;15.66;39.65;103123.22;6208834;23;20032;-83
2021/03/02 15:13:02;;;;;;;13.38;7.97;;;;;;;15.32;39.94;103117.53;6154873;23;20034;-84
2021/03/02 15:15:28;;;;;;;12.52;7.07;;;;;;;15.16;39.96;103122.06;6151920;23;20249;-84
2021/03/02 15:17:59;;;;;;;12.65;7.55;;;;;;;15.24;40.04;103120.25;6183786;23;20130;-84
2021/03/02 15:20:26;;;;;;;10.73;6.55;;;;;;;15.09;39.78;103112.63;6207288;23;20344;-84
2021/03/02 15:22:59;;;;;;;13.88;7.63;;;;;;;15.02;39.34;103117.00;6184287;23;20048;-84
2021/03/02 15:25:26;;;;;;;11.50;7.40;;;;;;;15.15;39.86;103115.16;6183583;23;20153;-83
2021/03/02 15:27:57;;;;;;;14.57;6.57;;;;;;;15.19;39.38;103116.84;6199373;23;20025;-83
2021/03/02 15:30:25;;;;;;;12.43;6.93;;;;;;;14.91;39.17;103117.13;6195840;23;20089;-83
2021/03/02 15:32:54;;;;;;;10.32;7.13;;;;;;;14.93;39.06;103111.91;6184649;23;20430;-83
2021/03/02 15:35:21;;;;;;;12.15;7.22;;;;;;;15.09;39.33;103103.13;6157803;23;20513;-84
2021/03/02 15:37:47;;;;;;;12.10;6.90;;;;;;;14.99;39.84;103106.69;6161246;23;20095;-84
2021/03/02 15:40:18;;;;;;;10.75;6.32;;;;;;;14.99;38.98;103108.44;6197895;22;20021;-84
2021/03/02 15:42:46;;;;;;;11.82;6.68;;;;;;;14.97;39.55;103105.81;6188491;23;20388;-83
2021/03/02 15:45:17;;;;;;;14.15;7.15;;;;;;;14.90;40.60;103099.00;6181887;23;20025;-85
2021/03/02 15:47:43;;;;;;;16.77;7.32;;;;;;;14.76;40.87;103098.28;6154792;23;20033;-84
2021/03/02 15:50:11;;;;;;;12.70;7.10;;;;;;;14.90;40.36;103097.25;6154558;23;20082;-83
2021/03/02 15:52:40;;;;;;;10.15;6.30;;;;;;;14.84;40.72;103097.34;6154549;23;20024;-83
2021/03/02 15:55:07;;;;;;;14.50;8.27;;;;;;;14.84;40.58;103088.69;6153248;23;20050;-83
2021/03/02 15:57:34;;;;;;;11.75;6.72;;;;;;;14.81;41.02;103083.53;6154211;23;20082;-83
2021/03/02 16:00:00;;;;;;;11.65;7.32;;;;;;;14.81;40.67;103086.97;6177407;23;20048;-83
2021/03/02 16:02:37;;;;;;;12.68;7.40;;;;;;;14.72;40.66;103084.47;6152599;23;20246;-83
2021/03/02 16:05:07;;;;;;;12.48;7.57;;;;;;;14.66;41.22;103082.81;6176883;23;20113;-83
2021/03/02 16:07:57;;;;;;;10.45;7.18;;;;;;;14.75;42.12;103073.22;6156511;23;20095;-84
2021/03/02 16:10:25;;;;;;;11.88;7.50;;;;;;;14.66;41.99;103077.63;6167095;23;20024;-83
2021/03/02 16:12:55;;;;;;;15.13;8.35;;;;;;;14.81;41.81;103073.16;6182318;23;20287;-84
2021/03/02 16:15:31;;;;;;;13.05;7.95;;;;;;;14.56;43.07;103065.63;6177934;23;20048;-84
2021/03/02 16:18:16;;;;;;;12.23;8.38;;;;;;;14.52;43.07;103071.72;6155876;23;20043;-84
2021/03/02 16:20:46;;;;;;;16.80;9.10;;;;;;;14.62;43.48;103067.28;6180477;23;20024;-84
2021/03/02 16:23:31;;;;;;;13.95;8.50;;;;;;;14.54;43.69;103067.38;6152317;23;20048;-84
2021/03/02 16:26:04;;;;;;;13.48;8.63;;;;;;;14.57;43.74;103063.88;6179399;23;20028;-84
2021/03/02 16:28:32;;;;;;;15.38;8.95;;;;;;;14.55;44.06;103068.25;6157602;23;20516;-84
2021/03/02 16:30:59;;;;;;;14.13;9.25;;;;;;;14.38;44.16;103063.16;6154666;23;20072;-84
2021/03/02 16:33:30;;;;;;;15.35;9.70;;;;;;;14.42;44.20;103060.53;6157088;23;20351;-84
2021/03/02 16:35:59;;;;;;;15.38;9.13;;;;;;;14.26;44.71;103055.50;6183654;23;20604;-84
2021/03/02 16:38:26;;;;;;;16.88;9.85;;;;;;;14.21;45.26;103058.13;6165156;23;20077;-84
2021/03/02 16:40:57;;;;;;;16.65;9.63;;;;;;;14.22;45.09;103065.03;6181772;23;20024;-84
2021/03/02 16:43:29;;;;;;;17.60;9.93;;;;;;;14.19;45.44;103052.09;6207441;23;20024;-85
2021/03/02 16:45:59;;;;;;;16.13;9.82;;;;;;;14.11;45.55;103064.25;6183366;23;20028;-84
2021/03/02 16:48:28;;;;;;;15.38;8.52;;;;;;;14.02;46.10;103064.31;6158800;23;20274;-84
2021/03/02 16:50:57;;;;;;;21.33;10.27;;;;;;;13.94;46.47;103066.94;6185556;23;20291;-84
2021/03/02 16:53:27;;;;;;;19.25;10.15;;;;;;;13.89;46.54;103064.38;6160965;23;20111;-83
2021/03/02 16:55:55;;;;;;;15.88;10.10;;;;;;;13.78;47.02;103071.38;6183158;23;20025;-84
2021/03/02 16:58:34;;;;;;;20.63;10.32;;;;;;;13.57;47.19;103072.34;6164108;23;20060;-83
2021/03/02 17:01:05;;;;;;;15.35;9.70;;;;;;;13.52;48.08;103070.66;6185804;23;20031;-83
2021/03/02 17:04:11;;;;;;;18.70;10.07;;;;;;;13.48;48.17;103066.38;6190374;23;20024;-85
2021/03/02 17:06:39;;;;;;;15.45;9.95;;;;;;;13.32;48.14;103078.50;6190779;23;20068;-84
2021/03/02 17:09:10;;;;;;;23.27;13.90;;;;;;;13.26;48.68;103066.44;6184178;23;20102;-84
2021/03/02 17:11:36;;;;;;;15.73;10.25;;;;;;;13.16;48.83;103069.91;6184126;23;20390;-84
2021/03/02 17:14:06;;;;;;;16.08;9.65;;;;;;;13.08;48.70;103069.94;6159335;23;20122;-84
2021/03/02 17:16:35;;;;;;;17.52;9.70;;;;;;;12.88;49.22;103075.16;6156395;23;20140;-84
2021/03/02 17:19:05;;;;;;;15.70;10.05;;;;;;;12.70;49.59;103076.91;6181355;23;20048;-84
2021/03/02 17:21:34;;;;;;;21.58;11.38;;;;;;;12.61;50.09;103076.06;6175737;23;20057;-83
2021/03/02 17:24:10;;;;;;;20.55;12.05;;;;;;;12.60;49.83;103073.47;6207325;23;20096;-84
2021/03/02 17:26:42;;;;;;;16.92;9.90;;;;;;;12.60;49.81;103074.34;6182295;23;20039;-83
2021/03/02 17:29:19;;;;;;;16.38;9.90;;;;;;;12.56;50.22;103076.94;6183442;23;20033;-83
2021/03/02 17:31:46;;;;;;;15.05;10.23;;;;;;;12.52;49.81;103072.63;6179447;23;20275;-84
2021/03/02 17:34:22;;;;;;;18.75;10.18;;;;;;;12.50;50.37;103088.13;6155959;23;20024;-84
2021/03/02 17:36:49;;;;;;;19.27;10.93;;;;;;;12.41;50.50;103080.38;6180524;23;20389;-84
2021/03/02 17:39:16;;;;;;;21.20;10.15;;;;;;;12.27;51.31;103085.53;6184882;23;20033;-83
2021/03/02 17:41:42;;;;;;;19.55;10.13;;;;;;;12.18;51.68;103092.41;6182705;23;20452;-83